Time;durP1;ratioP1;P1;durP2;ratioP2;P2;SDS_P1;SDS_P2;PMS_P1;PMS_P2;Temp;Humidity;BMP_temperature;BMP_pressure;BME280_temperature;BME280_humidity;BME280_pressure;Samples;Min_cycle;Max_cycle;Signal;HPM_P1;HPM_P2
2023/09/14 00:00:08;;;;;;;;;;;;;;;21.62;66.27;100452.34;10333828;28;96572;-86
2023/09/14 00:05:16;;;;;;;4.80;1.20;;;;;;;21.54;65.37;100444.06;10333591;28;97684;-87
2023/09/14 00:10:26;;;;;;;2.35;1.45;;;;;;;21.52;65.30;100441.53;10331861;28;96648;-87
2023/09/14 00:15:31;;;;;;;2.50;1.50;;;;;;;21.38;66.29;100446.31;10333978;28;97293;-87
2023/09/14 00:20:38;;;;;;;2.03;1.20;;;;;;;21.42;66.11;100437.03;10333503;28;96725;-85
2023/09/14 00:25:42;;;;;;;1.63;1.10;;;;;;;21.42;65.86;100437.03;10332891;28;96805;-86
2023/09/14 00:30:54;;;;;;;2.07;1.33;;;;;;;21.60;64.00;100435.56;10332220;28;96711;-85
2023/09/14 00:36:01;;;;;;;2.15;1.17;;;;;;;21.58;64.33;100439.31;10332799;28;97362;-87
2023/09/14 00:41:05;;;;;;;1.88;1.15;;;;;;;21.44;65.43;100438.63;10332928;28;97312;-85
2023/09/14 00:46:11;;;;;;;;;;;;;;;21.33;67.14;100429.75;10333683;28;97069;-85
2023/09/14 00:51:19;;;;;;;2.72;1.52;;;;;;;21.32;66.04;100422.69;10332491;28;96732;-86
2023/09/14 00:56:25;;;;;;;1.92;1.30;;;;;;;21.23;66.39;100434.16;10332363;28;97087;-86
2023/09/14 01:01:31;;;;;;;1.33;1.02;;;;;;;21.07;67.48;100436.34;10330476;28;97083;-87
2023/09/14 01:06:38;;;;;;;1.83;1.30;;;;;;;21.03;67.83;100429.53;10331819;28;96636;-86
2023/09/14 01:11:46;;;;;;;2.03;1.25;;;;;;;21.00;67.91;100421.75;10332801;28;97253;-84
2023/09/14 01:16:57;;;;;;;2.33;1.35;;;;;;;20.96;67.79;100425.63;10331938;28;96689;-85
2023/09/14 01:22:22;;;;;;;2.60;1.30;;;;;;;20.89;68.98;100424.41;10331614;28;97265;-85
2023/09/14 01:27:36;;;;;;;1.90;1.08;;;;;;;20.91;67.95;100420.63;10331550;28;96677;-86
2023/09/14 01:32:42;;;;;;;2.92;1.17;;;;;;;20.88;68.23;100414.69;10331431;28;96980;-86
2023/09/14 01:37:49;;;;;;;1.85;1.00;;;;;;;20.87;68.45;100411.16;10329761;28;97160;-86
2023/09/14 01:42:57;;;;;;;2.92;1.52;;;;;;;20.77;69.04;100409.34;10331364;28;97840;-86
2023/09/14 01:48:04;;;;;;;2.25;1.33;;;;;;;20.76;68.83;100404.94;10330469;28;97545;-87
2023/09/14 01:53:08;;;;;;;1.98;1.23;;;;;;;20.70;68.94;100406.28;10329327;28;96777;-86
2023/09/14 01:58:15;;;;;;;1.73;1.10;;;;;;;20.63;69.31;100394.38;10330240;28;96779;-86
2023/09/14 02:03:19;;;;;;;1.85;1.27;;;;;;;20.59;69.38;100392.91;10330642;28;97199;-86
2023/09/14 02:08:27;;;;;;;2.40;1.40;;;;;;;20.60;69.81;100396.44;10330092;28;96549;-86
2023/09/14 02:13:34;;;;;;;1.90;1.40;;;;;;;20.48;70.00;100394.72;10329924;28;97174;-87
2023/09/14 02:18:39;;;;;;;1.83;1.20;;;;;;;20.55;69.30;100383.41;10329816;28;97037;-86
2023/09/14 02:23:50;;;;;;;2.58;1.60;;;;;;;20.48;69.32;100395.56;10329386;28;96671;-87
2023/09/14 02:29:05;;;;;;;2.10;1.30;;;;;;;20.35;69.37;100390.34;10329899;28;97633;-87
2023/09/14 02:34:12;;;;;;;1.90;1.25;;;;;;;20.38;69.17;100389.22;10332734;28;96991;-86
2023/09/14 02:39:20;;;;;;;2.10;1.30;;;;;;;20.52;68.96;100388.16;10336513;28;96716;-87
2023/09/14 02:44:32;;;;;;;2.45;1.40;;;;;;;20.73;67.10;100387.31;10334884;28;97262;-88
2023/09/14 02:49:42;;;;;;;2.15;1.40;;;;;;;21.06;65.23;100376.59;10336066;28;96781;-85
2023/09/14 02:54:47;;;;;;;3.30;1.40;;;;;;;21.15;64.59;100381.22;10335784;28;96703;-87
2023/09/14 02:59:59;;;;;;;2.08;1.42;;;;;;;21.19;64.28;100371.16;10335379;28;97075;-86
2023/09/14 03:05:04;;;;;;;1.98;1.27;;;;;;;21.23;63.76;100373.44;10335328;28;96724;-86
2023/09/14 03:10:13;;;;;;;1.30;1.08;;;;;;;21.20;63.79;100375.53;10335150;28;96801;-88
2023/09/14 03:15:20;;;;;;;1.73;1.33;;;;;;;21.23;63.38;100377.94;10326879;28;96969;-87
2023/09/14 03:20:26;;;;;;;2.53;1.58;;;;;;;21.26;63.13;100375.88;10294917;28;96748;-88
2023/09/14 03:25:30;;;;;;;2.63;1.60;;;;;;;21.32;62.88;100372.69;10294079;28;97560;-87
2023/09/14 03:30:39;;;;;;;2.40;1.20;;;;;;;21.24;63.59;100375.13;10293023;28;97610;-86
2023/09/14 03:35:45;;;;;;;1.70;1.30;;;;;;;21.31;62.99;100367.47;10329394;28;96866;-85
2023/09/14 03:40:52;;;;;;;1.67;1.40;;;;;;;21.00;65.11;100365.56;10334331;28;97469;-86
2023/09/14 03:46:03;;;;;;;2.63;1.50;;;;;;;21.17;63.52;100365.91;10332706;28;96740;-85
2023/09/14 03:51:10;;;;;;;2.15;1.25;;;;;;;21.26;63.08;100367.84;10334261;28;96614;-85
2023/09/14 03:56:14;;;;;;;1.85;1.10;;;;;;;21.23;63.07;100365.41;10334055;28;97203;-85
2023/09/14 04:01:20;;;;;;;2.15;1.20;;;;;;;21.24;62.69;100367.09;10333144;28;96883;-87
2023/09/14 04:06:27;;;;;;;1.90;1.25;;;;;;;21.34;62.15;100376.09;10333269;28;96632;-88
2023/09/14 04:11:33;;;;;;;1.90;1.35;;;;;;;21.25;62.46;100376.00;10333577;28;96933;-85
2023/09/14 04:16:43;;;;;;;1.98;1.23;;;;;;;21.35;61.56;100372.44;10333324;28;96965;-86
2023/09/14 04:21:47;;;;;;;2.75;1.40;;;;;;;21.36;61.42;100375.97;10333382;28;96583;-86
2023/09/14 04:26:55;;;;;;;2.65;1.40;;;;;;;21.33;61.40;100362.81;10331386;28;96758;-85
2023/09/14 04:32:01;;;;;;;1.83;1.23;;;;;;;21.31;61.53;100370.97;10332169;28;96692;-88
2023/09/14 04:37:08;;;;;;;2.20;1.42;;;;;;;21.25;61.89;100371.50;10330576;28;96782;-87
2023/09/14 04:42:17;;;;;;;2.47;1.30;;;;;;;21.19;62.14;100374.66;10332098;28;96718;-87
2023/09/14 04:47:26;;;;;;;1.63;1.20;;;;;;;21.17;62.00;100368.56;10331637;28;96715;-86
2023/09/14 04:52:30;;;;;;;1.55;1.20;;;;;;;21.12;62.03;100378.78;10332419;28;97216;-87
2023/09/14 04:57:34;;;;;;;1.52;1.10;;;;;;;21.15;61.82;100373.19;10331067;28;96612;-88
2023/09/14 05:02:42;;;;;;;1.67;1.10;;;;;;;21.23;61.14;100378.81;10332592;28;96782;-88
2023/09/14 05:07:49;;;;;;;2.20;1.10;;;;;;;21.34;60.96;100377.94;10331678;28;97196;-86
2023/09/14 05:12:59;;;;;;;1.48;1.00;;;;;;;21.45;60.19;100381.41;10332276;28;96627;-88
2023/09/14 05:18:12;;;;;;;2.53;1.30;;;;;;;21.52;59.83;100373.72;10330820;28;96854;-86
2023/09/14 05:23:16;;;;;;;1.35;1.00;;;;;;;21.52;60.10;100382.59;10331408;28;97334;-88
2023/09/14 05:28:23;;;;;;;1.95;1.13;;;;;;;21.47;59.98;100379.47;10331355;28;96890;-87
2023/09/14 05:33:29;;;;;;;2.35;1.38;;;;;;;21.43;60.47;100377.19;10330769;28;96764;-88
2023/09/14 05:38:37;;;;;;;1.75;1.10;;;;;;;21.42;60.70;100383.50;10330669;28;97242;-88
2023/09/14 05:43:42;;;;;;;1.38;1.13;;;;;;;21.40;60.69;100383.63;10330196;28;96768;-89
2023/09/14 05:48:49;;;;;;;1.60;1.30;;;;;;;21.44;60.19;100385.09;10330940;28;97095;-86
2023/09/14 05:53:54;;;;;;;1.50;1.00;;;;;;;21.39;60.53;100381.94;10331547;28;96883;-87
2023/09/14 05:59:03;;;;;;;3.55;1.20;;;;;;;21.43;60.35;100377.19;10336162;22;97399;-88
2023/09/14 06:04:13;;;;;;;1.95;1.20;;;;;;;21.34;60.29;100384.13;10330442;28;97148;-86
2023/09/14 06:09:18;;;;;;;1.55;1.08;;;;;;;21.27;60.69;100393.66;10333458;28;96746;-88
2023/09/14 06:14:24;;;;;;;1.80;1.30;;;;;;;21.29;60.71;100398.88;10309403;28;96764;-87
2023/09/14 06:19:32;;;;;;;1.40;1.05;;;;;;;21.29;60.49;100396.19;10296316;28;96562;-88
2023/09/14 06:24:37;;;;;;;1.73;1.05;;;;;;;21.32;60.32;100399.47;10323992;28;96690;-86
2023/09/14 06:29:44;;;;;;;2.42;1.10;;;;;;;21.32;60.42;100399.47;10337316;28;97121;-87
2023/09/14 06:34:51;;;;;;;1.75;0.90;;;;;;;21.32;60.51;100396.78;10337250;28;96680;-88
2023/09/14 06:39:57;;;;;;;1.65;1.15;;;;;;;21.30;60.33;100403.22;10336542;28;96659;-87
2023/09/14 06:45:06;;;;;;;1.73;1.02;;;;;;;21.39;60.08;100411.38;10337730;28;96707;-86
2023/09/14 06:50:21;;;;;;;1.45;1.02;;;;;;;21.41;60.03;100408.56;10336255;28;97613;-88
2023/09/14 06:55:36;;;;;;;;;;;;;;;21.45;59.97;100407.31;10336486;28;96654;-88
2023/09/14 07:00:46;;;;;;;1.43;1.00;;;;;;;21.65;59.27;100416.41;10334896;28;96828;-87
2023/09/14 07:05:57;;;;;;;1.70;1.23;;;;;;;22.11;58.41;100423.19;10335772;28;96845;-87
2023/09/14 07:11:05;;;;;;;2.00;1.15;;;;;;;22.59;57.32;100426.22;10335595;28;99200;-88
2023/09/14 07:16:10;;;;;;;2.78;1.23;;;;;;;23.15;56.01;100421.25;10335951;28;96834;-88
2023/09/14 07:21:20;;;;;;;2.30;1.40;;;;;;;23.49;55.10;100425.34;10334846;28;97070;-86
2023/09/14 07:26:26;;;;;;;1.63;1.13;;;;;;;23.80;54.51;100426.09;10335427;28;96692;-87
2023/09/14 07:31:33;;;;;;;1.90;1.20;;;;;;;24.06;53.55;100427.25;10334454;28;96816;-89
2023/09/14 07:37:01;;;;;;;1.65;1.20;;;;;;;24.23;53.08;100429.22;10334952;28;96807;-87
2023/09/14 07:42:14;;;;;;;2.05;1.20;;;;;;;24.50;52.81;100426.66;10315475;28;96904;-87
2023/09/14 07:47:29;;;;;;;1.48;1.15;;;;;;;24.36;51.96;100422.56;10334216;28;97006;-86
2023/09/14 07:52:41;;;;;;;2.67;1.15;;;;;;;24.84;50.49;100420.59;10333367;28;96762;-88
2023/09/14 07:57:50;;;;;;;1.43;1.13;;;;;;;25.24;50.24;100422.19;10333786;28;97454;-89
2023/09/14 08:02:55;;;;;;;1.15;0.85;;;;;;;25.37;49.95;100411.88;10333776;28;96755;-88
2023/09/14 08:08:16;;;;;;;1.83;1.20;;;;;;;25.84;48.90;100416.16;10333334;28;96756;-87
2023/09/14 08:13:24;;;;;;;1.63;1.20;;;;;;;26.15;47.02;100412.03;10333162;28;96786;-86
2023/09/14 08:18:31;;;;;;;1.20;0.85;;;;;;;26.87;46.32;100412.56;10333537;28;97174;-89
2023/09/14 08:23:40;;;;;;;1.90;1.30;;;;;;;27.34;45.05;100415.69;10331541;28;97352;-88
2023/09/14 08:28:45;;;;;;;1.00;0.88;;;;;;;27.88;44.20;100417.91;10333554;28;96871;-87
2023/09/14 08:33:54;;;;;;;2.20;1.20;;;;;;;28.05;43.07;100410.63;10329955;28;96747;-87
2023/09/14 08:39:12;;;;;;;1.40;1.17;;;;;;;28.37;41.91;100410.69;10332965;28;96700;-88
2023/09/14 08:44:27;;;;;;;2.28;1.58;;;;;;;28.68;41.51;100417.06;10330570;28;96835;-88
2023/09/14 08:49:38;;;;;;;1.85;1.15;;;;;;;28.83;41.57;100409.91;10331925;28;97092;-89
2023/09/14 08:54:47;;;;;;;1.83;1.30;;;;;;;29.34;40.65;100415.88;10332406;28;97516;-87
2023/09/14 09:00:15;;;;;;;3.53;1.55;;;;;;;29.80;39.70;100410.38;10331959;28;96877;-87
2023/09/14 09:05:24;;;;;;;1.55;1.33;;;;;;;30.25;39.36;100410.41;10331496;28;96651;-87
2023/09/14 09:10:52;;;;;;;1.88;1.38;;;;;;;29.89;38.97;100413.88;10331598;28;96755;-87
2023/09/14 09:16:02;;;;;;;1.70;1.10;;;;;;;29.85;39.59;100410.66;10322118;28;97354;-86
2023/09/14 09:21:38;;;;;;;2.13;1.30;;;;;;;30.09;39.63;100415.09;10323864;28;97925;-87
2023/09/14 09:26:58;;;;;;;1.67;1.33;;;;;;;29.71;39.30;100413.31;10330963;28;97169;-88
2023/09/14 09:32:15;;;;;;;1.42;1.15;;;;;;;29.93;38.93;100410.63;10330640;28;96868;-85
2023/09/14 09:37:40;;;;;;;1.63;1.30;;;;;;;30.44;38.11;100405.50;10329531;28;96910;-85
2023/09/14 09:42:52;;;;;;;2.13;1.45;;;;;;;30.86;37.50;100401.16;10329797;28;96852;-85
2023/09/14 09:48:12;;;;;;;1.85;1.33;;;;;;;31.25;36.68;100404.44;10330535;28;97013;-86
2023/09/14 09:53:30;;;;;;;1.98;1.33;;;;;;;31.03;36.79;100397.22;10329529;28;97436;-85
2023/09/14 09:58:42;;;;;;;2.75;1.30;;;;;;;31.30;36.29;100396.56;10329921;28;97120;-86
2023/09/14 10:03:59;;;;;;;1.85;1.40;;;;;;;31.60;36.31;100391.91;10329577;28;97037;-86
2023/09/14 10:09:12;;;;;;;4.30;1.65;;;;;;;31.47;36.00;100380.88;10329927;28;97359;-85
2023/09/14 10:14:43;;;;;;;1.90;1.38;;;;;;;31.68;35.51;100382.78;10302647;28;97108;-86
2023/09/14 10:20:10;;;;;;;1.85;1.40;;;;;;;31.84;34.89;100383.41;10293683;28;96857;-83
2023/09/14 10:25:25;;;;;;;8.75;4.20;;;;;;;32.50;35.00;100367.69;10329422;28;97295;-86
2023/09/14 10:30:52;;;;;;;;;;;;;;;;;;;;;
2023/09/14 10:36:22;;;;;;;1.75;1.38;;;;;;;32.47;34.32;100366.19;10328551;28;96993;-86
2023/09/14 10:41:28;;;;;;;3.50;2.10;;;;;;;32.81;34.23;100354.47;10288327;28;96729;-86
2023/09/14 10:46:55;;;;;;;3.75;1.70;;;;;;;32.07;34.81;100351.38;10328279;28;96680;-86
2023/09/14 10:52:29;;;;;;;1.83;1.30;;;;;;;32.62;34.29;100345.09;10328466;28;96848;-85
2023/09/14 10:57:55;;;;;;;1.23;1.10;;;;;;;32.63;34.10;100335.06;10334981;28;96970;-86
2023/09/14 11:09:08;;;;;;;1.63;1.25;;;;;;;32.84;33.71;100314.00;10333304;28;96822;-86
2023/09/14 11:14:17;;;;;;;1.58;1.17;;;;;;;33.19;33.52;100312.09;10335714;28;96670;-86
2023/09/14 11:19:53;;;;;;;1.55;1.13;;;;;;;33.29;33.00;100301.63;10335896;28;97175;-88
2023/09/14 11:25:03;;;;;;;1.35;1.08;;;;;;;33.71;32.73;100295.03;10334970;28;96712;-87
2023/09/14 11:30:29;;;;;;;1.80;1.33;;;;;;;33.89;32.69;100295.25;10335174;28;96646;-87
2023/09/14 11:35:42;;;;;;;1.40;1.23;;;;;;;33.39;32.78;100272.91;10335544;28;97494;-86
2023/09/14 11:40:56;;;;;;;1.55;1.27;;;;;;;33.38;33.41;100268.47;10334972;28;96734;-86
2023/09/14 11:46:24;;;;;;;1.70;1.30;;;;;;;33.54;32.77;100263.72;10334676;28;97772;-85
2023/09/14 11:51:42;;;;;;;2.20;1.30;;;;;;;34.43;31.43;100257.63;10335037;28;96605;-86
2023/09/14 11:56:49;;;;;;;1.63;1.35;;;;;;;33.94;32.41;100247.16;10335067;28;97015;-88
2023/09/14 12:02:08;;;;;;;1.30;1.13;;;;;;;34.19;31.48;100240.00;10335747;28;97254;-86
2023/09/14 12:07:18;;;;;;;1.98;1.40;;;;;;;34.44;31.63;100237.44;10333281;28;96956;-87
2023/09/14 12:12:35;;;;;;;1.33;1.15;;;;;;;34.06;31.68;100223.63;10334488;28;97526;-87
2023/09/14 12:17:51;;;;;;;3.13;1.40;;;;;;;34.02;31.67;100213.34;10333126;28;96910;-86
2023/09/14 12:23:12;;;;;;;2.20;1.50;;;;;;;34.26;31.70;100216.25;10334607;28;97423;-88
2023/09/14 12:28:33;;;;;;;1.58;1.05;;;;;;;33.71;31.83;100204.94;10334642;28;97088;-86
2023/09/14 12:33:42;;;;;;;2.50;1.38;;;;;;;34.30;31.54;100198.34;10333788;28;96806;-88
2023/09/14 12:38:53;;;;;;;1.77;1.40;;;;;;;34.26;32.39;100194.41;10334334;28;96705;-88
2023/09/14 12:44:03;;;;;;;1.70;1.42;;;;;;;34.50;31.58;100179.19;10333689;28;96852;-88
2023/09/14 12:49:08;;;;;;;2.17;1.40;;;;;;;34.07;32.06;100173.44;10333123;28;96939;-88
2023/09/14 12:54:16;;;;;;;1.60;1.23;;;;;;;34.52;31.63;100168.88;10334446;28;96634;-88
2023/09/14 12:59:24;;;;;;;1.23;1.13;;;;;;;33.97;32.41;100164.00;10333188;28;97022;-86
2023/09/14 13:04:36;;;;;;;1.77;1.50;;;;;;;32.30;34.77;100155.03;10333082;28;97345;-86
2023/09/14 13:09:42;;;;;;;2.25;1.45;;;;;;;31.15;36.23;100150.13;10332555;28;97815;-86
2023/09/14 13:14:53;;;;;;;1.85;1.30;;;;;;;33.02;34.26;100139.78;10331539;28;96723;-86
2023/09/14 13:20:09;;;;;;;1.58;1.27;;;;;;;34.11;32.78;100141.06;10332169;28;97045;-85
2023/09/14 13:25:16;;;;;;;2.13;1.40;;;;;;;34.73;32.17;100130.31;10333035;28;96876;-86
2023/09/14 13:30:23;;;;;;;1.67;1.40;;;;;;;34.93;31.31;100125.56;10334645;28;96730;-86
2023/09/14 13:35:33;;;;;;;2.33;1.50;;;;;;;35.17;31.04;100119.28;10331524;28;97216;-87
2023/09/14 13:40:39;;;;;;;1.70;1.35;;;;;;;34.03;32.11;100109.34;10293443;28;96730;-88
2023/09/14 13:45:48;;;;;;;1.50;1.20;;;;;;;34.26;32.28;100101.50;10315607;28;96946;-87
2023/09/14 13:51:00;;;;;;;2.08;1.63;;;;;;;34.13;32.60;100097.94;10332613;28;96798;-86
2023/09/14 13:56:11;;;;;;;1.77;1.45;;;;;;;32.93;33.13;100085.69;10333772;28;96919;-87
2023/09/14 14:01:26;;;;;;;1.90;1.40;;;;;;;32.23;34.68;100078.72;10332820;28;96685;-87
2023/09/14 14:06:33;;;;;;;1.65;1.33;;;;;;;31.89;35.45;100075.22;10334373;28;96637;-86
2023/09/14 14:11:39;;;;;;;2.38;1.70;;;;;;;32.27;35.28;100069.09;10332674;28;97299;-86
2023/09/14 14:16:52;;;;;;;2.65;1.38;;;;;;;32.14;35.29;100057.31;10333727;28;96890;-85
2023/09/14 14:22:03;;;;;;;1.55;1.20;;;;;;;31.93;35.86;100049.25;10330801;28;96698;-86
2023/09/14 14:27:14;;;;;;;2.42;1.52;;;;;;;32.09;35.31;100044.31;10331176;28;97137;-86
2023/09/14 14:32:28;;;;;;;1.60;1.30;;;;;;;32.20;35.26;100038.25;10338438;28;98171;-87
2023/09/14 14:37:34;;;;;;;1.60;1.23;;;;;;;32.34;35.06;100034.56;10339569;28;96771;-86
2023/09/14 14:42:43;;;;;;;1.88;1.30;;;;;;;32.22;34.80;100027.19;10337523;28;96814;-86
2023/09/14 14:47:54;;;;;;;1.60;1.30;;;;;;;32.70;34.36;100020.63;10338713;28;97019;-86
2023/09/14 14:53:08;;;;;;;2.80;2.00;;;;;;;31.96;36.60;100018.94;10336341;28;96797;-87
2023/09/14 14:58:16;;;;;;;2.10;1.42;;;;;;;31.76;35.80;100005.19;10337926;28;97044;-87
2023/09/14 15:03:21;;;;;;;1.70;1.33;;;;;;;31.51;35.95;100009.47;10339294;28;97235;-86
2023/09/14 15:08:32;;;;;;;2.53;1.85;;;;;;;32.03;35.12;100006.19;10337023;28;96879;-87
2023/09/14 15:13:42;;;;;;;2.03;1.42;;;;;;;32.11;35.29;99998.66;10338335;28;97286;-86
2023/09/14 15:18:48;;;;;;;1.85;1.25;;;;;;;32.19;35.35;99981.28;10338379;28;97168;-87
2023/09/14 15:23:54;;;;;;;2.30;1.52;;;;;;;31.92;35.71;99984.97;10339010;28;96671;-85
2023/09/14 15:29:01;;;;;;;1.92;1.42;;;;;;;31.99;36.06;99975.81;10335370;28;96670;-85
2023/09/14 15:34:15;;;;;;;2.05;1.48;;;;;;;31.93;36.27;99965.72;10335872;28;96781;-86
2023/09/14 15:39:20;;;;;;;2.30;1.50;;;;;;;31.59;36.82;99954.88;10337326;28;96847;-86
2023/09/14 15:44:34;;;;;;;2.10;1.40;;;;;;;31.39;37.71;99950.38;10334870;28;96722;-86
2023/09/14 15:49:44;;;;;;;2.47;1.77;;;;;;;31.39;37.69;99937.59;10336235;28;97115;-85
2023/09/14 15:54:51;;;;;;;2.30;1.35;;;;;;;31.47;38.40;99937.47;10335499;28;96995;-85
2023/09/14 16:00:05;;;;;;;2.75;1.73;;;;;;;31.30;39.19;99927.97;10335954;28;96713;-85
2023/09/14 16:05:18;;;;;;;2.40;1.60;;;;;;;31.28;39.30;99932.75;10337581;28;96992;-85
2023/09/14 16:10:22;;;;;;;2.55;1.60;;;;;;;31.36;39.64;99924.41;10339133;28;97121;-88
2023/09/14 16:15:44;;;;;;;2.35;1.65;;;;;;;31.31;38.25;99919.59;10335435;28;98517;-87
2023/09/14 16:21:00;;;;;;;1.58;1.23;;;;;;;31.25;38.43;99917.66;10337040;28;97474;-87
2023/09/14 16:26:08;;;;;;;2.10;1.58;;;;;;;31.12;38.34;99894.97;10337604;28;96561;-87
2023/09/14 16:31:19;;;;;;;2.63;1.73;;;;;;;31.08;38.37;99889.09;10336934;28;96652;-86
2023/09/14 16:36:23;;;;;;;2.80;1.83;;;;;;;31.02;38.22;99883.63;10334423;28;96818;-86
2023/09/14 16:41:31;;;;;;;2.55;1.60;;;;;;;31.16;38.12;99888.97;10333897;28;96987;-86
2023/09/14 16:46:42;;;;;;;1.92;1.45;;;;;;;31.07;37.30;99881.16;10335891;28;96657;-89
2023/09/14 16:51:51;;;;;;;1.92;1.35;;;;;;;31.10;37.47;99881.59;10334952;28;97092;-89
2023/09/14 16:57:07;;;;;;;2.25;1.52;;;;;;;31.08;37.19;99880.09;10334830;28;96649;-86
2023/09/14 17:02:24;;;;;;;2.22;1.45;;;;;;;31.15;37.21;99875.53;10334315;28;96509;-87
2023/09/14 17:07:31;;;;;;;2.28;1.70;;;;;;;31.12;36.98;99873.22;10334354;28;96838;-87
2023/09/14 17:12:35;;;;;;;2.13;1.55;;;;;;;31.18;36.91;99875.97;10335315;28;97275;-87
2023/09/14 17:17:49;;;;;;;3.00;1.80;;;;;;;31.25;36.89;99887.75;10334803;28;97526;-86
2023/09/14 17:23:02;;;;;;;2.22;1.77;;;;;;;31.24;36.87;99891.53;10333307;28;96759;-86
2023/09/14 17:28:11;;;;;;;2.30;1.63;;;;;;;31.31;36.63;99891.56;10330795;28;97396;-86
2023/09/14 17:33:27;;;;;;;2.15;1.58;;;;;;;31.31;36.72;99895.13;10332505;28;97155;-86
2023/09/14 17:38:34;;;;;;;2.67;1.70;;;;;;;31.40;36.32;99905.81;10332614;28;96756;-86
2023/09/14 17:43:45;;;;;;;2.25;1.38;;;;;;;31.30;35.96;99906.22;10335746;28;96991;-87
2023/09/14 17:48:56;;;;;;;4.65;1.30;;;;;;;31.11;36.36;99896.84;10331888;28;96724;-90
2023/09/14 17:54:19;;;;;;;2.03;1.45;;;;;;;30.96;37.31;99903.44;10332133;28;96876;-85
2023/09/14 17:59:23;;;;;;;2.97;1.48;;;;;;;30.78;37.37;99894.97;10330967;28;96791;-87
2023/09/14 18:04:36;;;;;;;2.45;1.63;;;;;;;30.51;38.12;99893.06;10334295;28;96901;-86
2023/09/14 18:09:42;;;;;;;2.13;1.50;;;;;;;30.43;38.13;99890.47;10337743;28;97132;-86
2023/09/14 18:14:51;;;;;;;1.92;1.25;;;;;;;30.42;37.92;99884.22;10345494;28;97108;-87
2023/09/14 18:20:10;;;;;;;1.98;1.30;;;;;;;30.44;38.21;99879.41;10344277;28;96741;-89
2023/09/14 18:25:21;;;;;;;2.58;1.67;;;;;;;30.29;38.83;99881.38;10342572;28;96928;-90
2023/09/14 18:30:25;;;;;;;3.85;1.63;;;;;;;30.20;39.66;99872.53;10394240;22;97622;-88
2023/09/14 18:35:31;;;;;;;2.38;1.40;;;;;;;30.12;40.28;99869.13;10385078;28;96678;-89
2023/09/14 18:40:47;;;;;;;2.75;1.60;;;;;;;30.04;40.68;99880.06;10385944;28;97439;-89
2023/09/14 18:45:54;;;;;;;2.25;1.50;;;;;;;29.81;41.17;99893.00;10381492;28;96706;-90
2023/09/14 18:51:12;;;;;;;2.58;1.42;;;;;;;29.59;42.37;99892.09;10389748;28;96625;-89
2023/09/14 18:56:16;;;;;;;2.03;1.40;;;;;;;29.41;42.52;99915.22;10392785;28;97424;-88
2023/09/14 19:01:41;;;;;;;2.35;1.50;;;;;;;29.28;42.83;99924.00;10400222;28;96685;-89
2023/09/14 19:06:51;;;;;;;2.33;1.60;;;;;;;29.12;43.55;99944.00;10405678;28;96530;-88
2023/09/14 19:12:26;;;;;;;3.47;1.70;;;;;;;29.01;44.09;99971.59;10403321;28;97174;-88
2023/09/14 19:17:44;;;;;;;2.63;1.50;;;;;;;28.65;45.41;100027.44;10397171;28;96723;-89
2023/09/14 19:22:53;;;;;;;;;;;;;;;28.30;42.20;100021.75;10376831;28;96864;-90
2023/09/14 19:28:10;;;;;;;2.50;1.52;;;;;;;27.98;41.73;100031.69;10377414;28;97636;-89
2023/09/14 19:33:18;;;;;;;2.13;1.40;;;;;;;27.97;41.38;100035.44;10377099;28;96706;-87
2023/09/14 19:38:40;;;;;;;1.75;1.23;;;;;;;27.48;43.27;100033.06;10377221;28;97276;-89
2023/09/14 19:43:48;;;;;;;1.92;1.25;;;;;;;27.24;44.23;100019.59;10377283;28;97312;-87
2023/09/14 19:48:55;;;;;;;1.90;1.10;;;;;;;26.89;44.24;100024.34;10377933;28;96765;-88
2023/09/14 19:54:06;;;;;;;1.48;0.95;;;;;;;26.42;45.19;100028.72;10377132;28;97310;-87
2023/09/14 19:59:14;;;;;;;1.73;0.80;;;;;;;26.09;47.32;100067.41;10375874;28;96796;-89
2023/09/14 20:04:21;;;;;;;0.93;0.70;;;;;;;25.45;50.56;100069.78;10374384;28;96754;-87
2023/09/14 20:09:27;;;;;;;1.55;0.90;;;;;;;25.00;53.02;100078.03;10375432;28;96826;-87
2023/09/14 20:14:31;;;;;;;1.73;0.90;;;;;;;24.98;53.31;100092.63;10375065;28;97109;-86
2023/09/14 20:19:38;;;;;;;1.70;1.13;;;;;;;24.53;56.85;100090.06;10375303;28;96765;-87
2023/09/14 20:24:44;;;;;;;2.08;1.17;;;;;;;24.29;56.96;100090.63;10375059;28;97052;-86
2023/09/14 20:29:49;;;;;;;2.58;1.30;;;;;;;23.67;61.04;100103.94;10373227;28;96902;-87
2023/09/14 20:34:54;;;;;;;1.25;0.90;;;;;;;23.66;61.33;100113.00;10375170;28;96794;-86
2023/09/14 20:40:09;;;;;;;2.33;1.42;;;;;;;23.66;61.63;100113.00;10377610;28;97182;-90
2023/09/14 20:45:16;;;;;;;2.50;1.45;;;;;;;23.71;60.94;100108.03;10376628;28;96734;-90
2023/09/14 20:50:22;;;;;;;2.05;1.38;;;;;;;23.54;62.35;100098.91;10376455;28;96634;-90
2023/09/14 20:55:41;;;;;;;2.60;1.30;;;;;;;23.54;64.37;100088.16;10336978;28;96562;-93
2023/09/14 21:00:46;;;;;;;2.65;1.33;;;;;;;23.37;64.08;100082.66;10339895;28;96706;-92
2023/09/14 21:06:11;;;;;;;3.63;1.63;;;;;;;23.33;65.15;100095.53;10343206;28;96862;-92
2023/09/14 21:11:19;;;;;;;2.40;1.60;;;;;;;23.51;64.15;100085.72;10375630;28;97299;-91
2023/09/14 21:16:24;;;;;;;3.20;1.73;;;;;;;23.56;63.29;100074.56;10375482;28;97514;-90
2023/09/14 21:21:30;;;;;;;4.18;1.60;;;;;;;23.53;64.05;100072.13;10374148;28;96653;-89
2023/09/14 21:26:37;;;;;;;4.47;1.73;;;;;;;23.40;65.15;100069.78;10375139;28;96968;-89
2023/09/14 21:31:41;;;;;;;2.20;1.35;;;;;;;23.33;65.60;100060.63;10375170;28;97251;-89
2023/09/14 21:36:50;;;;;;;2.50;1.30;;;;;;;23.33;65.68;100054.41;10373113;28;96718;-87
2023/09/14 21:42:01;;;;;;;2.05;1.58;;;;;;;23.36;65.62;100048.72;10374154;28;96754;-87
2023/09/14 21:47:13;;;;;;;3.25;1.50;;;;;;;23.45;65.23;100056.78;10372026;28;97034;-90
2023/09/14 21:52:24;;;;;;;2.35;1.42;;;;;;;23.45;65.00;100040.66;10372343;28;96806;-90
2023/09/14 21:57:33;;;;;;;2.92;1.70;;;;;;;23.52;64.74;100043.59;10371679;28;96773;-86
2023/09/14 22:02:38;;;;;;;1.90;1.60;;;;;;;23.58;64.65;100041.19;10372800;28;97151;-87
2023/09/14 22:07:42;;;;;;;2.65;1.52;;;;;;;23.58;64.96;100040.31;10371473;28;97145;-86
2023/09/14 22:12:56;;;;;;;2.88;1.63;;;;;;;23.65;64.17;100022.63;10371894;28;96818;-86
2023/09/14 22:18:02;;;;;;;4.55;2.00;;;;;;;23.61;64.59;100018.56;10370868;28;97240;-87
2023/09/14 22:23:12;;;;;;;2.22;1.45;;;;;;;23.47;65.56;100016.31;10371568;28;96951;-88
2023/09/14 22:28:20;;;;;;;2.55;1.65;;;;;;;23.43;66.04;100012.22;10370886;28;98157;-88
2023/09/14 22:33:24;;;;;;;2.67;1.73;;;;;;;23.28;67.15;100006.50;10370536;28;96753;-86
2023/09/14 22:38:32;;;;;;;2.83;1.30;;;;;;;23.30;66.35;100001.81;10371631;28;96684;-87
2023/09/14 22:43:42;;;;;;;3.17;1.70;;;;;;;23.42;66.18;100002.50;10370828;28;97602;-88
2023/09/14 22:48:58;;;;;;;2.83;1.60;;;;;;;23.50;65.64;99992.69;10370328;28;96686;-86
2023/09/14 22:54:05;;;;;;;3.17;1.88;;;;;;;23.53;65.60;99987.03;10377197;28;96771;-88
2023/09/14 22:59:18;;;;;;;2.67;1.60;;;;;;;23.49;65.94;99991.00;10377656;28;96654;-86
2023/09/14 23:04:30;;;;;;;3.33;1.80;;;;;;;23.42;66.32;99989.88;10377480;28;96781;-88
2023/09/14 23:09:34;;;;;;;2.60;1.52;;;;;;;23.42;66.27;99981.00;10376487;28;96649;-86
2023/09/14 23:14:42;;;;;;;2.65;1.75;;;;;;;23.34;66.53;99973.69;10377729;28;97141;-86
2023/09/14 23:19:57;;;;;;;3.28;1.77;;;;;;;23.41;66.34;99977.47;10376772;28;97264;-87
2023/09/14 23:25:01;;;;;;;1.88;1.60;;;;;;;23.43;65.94;99967.44;10376043;28;97238;-87
2023/09/14 23:30:09;;;;;;;3.03;1.50;;;;;;;23.51;65.83;99967.50;10374778;28;96911;-86
2023/09/14 23:35:17;;;;;;;4.15;1.77;;;;;;;23.45;66.15;99964.59;10376108;28;96666;-87
2023/09/14 23:40:32;;;;;;;3.72;1.98;;;;;;;23.34;66.36;99960.25;10376039;28;97434;-86
2023/09/14 23:45:43;;;;;;;2.72;1.50;;;;;;;23.35;66.62;99958.44;10375980;28;96668;-87
2023/09/14 23:50:49;;;;;;;3.15;1.65;;;;;;;23.19;67.15;99952.84;10375285;28;96591;-86
2023/09/14 23:55:55;;;;;;;2.65;1.60;;;;;;;23.21;67.08;99945.47;10375378;28;96716;-86
